sensor_id;sensor_type;location;lat;lon;timestamp;pressure;altitude;pressure_sealevel;temperature;humidity
16525;BME280;8375;33.594;-117.718;2023-01-30T00:01:55;99979.84;;;12.20;71.69
16525;BME280;8375;33.594;-117.718;2023-01-30T00:04:24;99973.94;;;12.27;71.41
16525;BME280;8375;33.594;-117.718;2023-01-30T00:06:53;99974.63;;;12.29;71.70
16525;BME280;8375;33.594;-117.718;2023-01-30T00:09:23;99985.47;;;12.35;70.99
16525;BME280;8375;33.594;-117.718;2023-01-30T00:11:51;99978.50;;;12.45;70.84
16525;BME280;8375;33.594;-117.718;2023-01-30T00:14:21;99970.97;;;12.52;70.10
16525;BME280;8375;33.594;-117.718;2023-01-30T00:16:50;99969.06;;;12.54;69.04
16525;BME280;8375;33.594;-117.718;2023-01-30T00:19:18;99973.59;;;12.52;69.10
16525;BME280;8375;33.594;-117.718;2023-01-30T00:21:47;99974.66;;;12.49;69.60
16525;BME280;8375;33.594;-117.718;2023-01-30T00:24:16;99974.41;;;12.42;68.17
16525;BME280;8375;33.594;-117.718;2023-01-30T00:26:46;99970.13;;;12.31;69.89
16525;BME280;8375;33.594;-117.718;2023-01-30T00:29:15;99981.91;;;12.26;70.04
16525;BME280;8375;33.594;-117.718;2023-01-30T00:31:44;99976.41;;;12.19;70.87
16525;BME280;8375;33.594;-117.718;2023-01-30T00:34:13;99980.22;;;12.15;71.70
16525;BME280;8375;33.594;-117.718;2023-01-30T00:36:42;99981.72;;;12.08;70.83
16525;BME280;8375;33.594;-117.718;2023-01-30T00:39:11;99987.69;;;11.98;72.25
16525;BME280;8375;33.594;-117.718;2023-01-30T00:41:40;99979.38;;;12.05;73.82
16525;BME280;8375;33.594;-117.718;2023-01-30T00:44:28;99987.59;;;12.10;74.09
16525;BME280;8375;33.594;-117.718;2023-01-30T00:47:16;99976.94;;;12.03;72.57
16525;BME280;8375;33.594;-117.718;2023-01-30T00:49:44;99975.81;;;12.06;74.21
16525;BME280;8375;33.594;-117.718;2023-01-30T00:52:13;99981.72;;;12.08;74.37
16525;BME280;8375;33.594;-117.718;2023-01-30T00:54:47;99991.75;;;12.12;75.61
16525;BME280;8375;33.594;-117.718;2023-01-30T00:57:18;99984.19;;;12.09;74.90
16525;BME280;8375;33.594;-117.718;2023-01-30T00:59:54;99979.88;;;11.98;74.85
16525;BME280;8375;33.594;-117.718;2023-01-30T01:02:31;99988.91;;;11.94;76.43
16525;BME280;8375;33.594;-117.718;2023-01-30T01:05:01;99986.13;;;11.86;77.55
16525;BME280;8375;33.594;-117.718;2023-01-30T01:07:31;99992.56;;;11.82;79.26
16525;BME280;8375;33.594;-117.718;2023-01-30T01:10:01;99986.06;;;11.66;79.97
16525;BME280;8375;33.594;-117.718;2023-01-30T01:12:31;99996.59;;;11.65;80.62
16525;BME280;8375;33.594;-117.718;2023-01-30T01:15:03;99990.53;;;11.54;81.64
16525;BME280;8375;33.594;-117.718;2023-01-30T01:17:32;100000.34;;;11.51;83.87
16525;BME280;8375;33.594;-117.718;2023-01-30T01:20:02;100003.72;;;11.41;84.50
16525;BME280;8375;33.594;-117.718;2023-01-30T01:22:31;100005.88;;;11.36;85.70
16525;BME280;8375;33.594;-117.718;2023-01-30T01:25:00;100005.16;;;11.24;87.12
16525;BME280;8375;33.594;-117.718;2023-01-30T01:27:34;100005.97;;;11.25;89.57
16525;BME280;8375;33.594;-117.718;2023-01-30T01:30:08;100003.66;;;11.10;89.73
16525;BME280;8375;33.594;-117.718;2023-01-30T01:32:36;100001.56;;;11.04;90.43
16525;BME280;8375;33.594;-117.718;2023-01-30T01:35:08;99999.44;;;10.88;91.85
16525;BME280;8375;33.594;-117.718;2023-01-30T01:37:37;99999.53;;;10.86;94.24
16525;BME280;8375;33.594;-117.718;2023-01-30T01:40:09;100004.63;;;10.88;95.77
16525;BME280;8375;33.594;-117.718;2023-01-30T01:42:59;100007.56;;;10.83;95.55
16525;BME280;8375;33.594;-117.718;2023-01-30T01:45:30;100003.13;;;10.74;94.96
16525;BME280;8375;33.594;-117.718;2023-01-30T01:48:03;100003.63;;;10.68;94.78
16525;BME280;8375;33.594;-117.718;2023-01-30T01:50:40;100006.00;;;10.60;96.32
16525;BME280;8375;33.594;-117.718;2023-01-30T01:53:12;100002.22;;;10.64;98.12
16525;BME280;8375;33.594;-117.718;2023-01-30T01:55:44;100011.31;;;10.69;98.64
16525;BME280;8375;33.594;-117.718;2023-01-30T01:58:18;100013.56;;;10.63;97.01
16525;BME280;8375;33.594;-117.718;2023-01-30T02:00:52;100009.34;;;10.50;96.48
16525;BME280;8375;33.594;-117.718;2023-01-30T02:03:23;100010.84;;;10.53;97.46
16525;BME280;8375;33.594;-117.718;2023-01-30T02:05:56;100013.00;;;10.48;98.05
16525;BME280;8375;33.594;-117.718;2023-01-30T02:08:28;100011.94;;;10.50;98.60
16525;BME280;8375;33.594;-117.718;2023-01-30T02:11:03;100012.03;;;10.49;98.96
16525;BME280;8375;33.594;-117.718;2023-01-30T02:13:33;100018.63;;;10.53;99.25
16525;BME280;8375;33.594;-117.718;2023-01-30T02:16:06;100011.47;;;10.45;98.74
16525;BME280;8375;33.594;-117.718;2023-01-30T02:18:37;100016.44;;;10.48;99.80
16525;BME280;8375;33.594;-117.718;2023-01-30T02:21:35;100003.31;;;10.38;99.88
16525;BME280;8375;33.594;-117.718;2023-01-30T02:27:25;100009.44;;;10.37;100.00
16525;BME280;8375;33.594;-117.718;2023-01-30T02:30:45;100018.66;;;10.41;100.00
16525;BME280;8375;33.594;-117.718;2023-01-30T02:33:21;100014.63;;;10.49;100.00
16525;BME280;8375;33.594;-117.718;2023-01-30T02:36:02;100015.47;;;10.49;100.00
16525;BME280;8375;33.594;-117.718;2023-01-30T02:38:40;100027.63;;;10.49;100.00
16525;BME280;8375;33.594;-117.718;2023-01-30T02:41:18;100035.16;;;10.52;100.00
16525;BME280;8375;33.594;-117.718;2023-01-30T02:43:55;100038.81;;;10.38;100.00
16525;BME280;8375;33.594;-117.718;2023-01-30T02:46:33;100039.88;;;10.24;100.00
16525;BME280;8375;33.594;-117.718;2023-01-30T02:49:07;100041.78;;;10.22;100.00
16525;BME280;8375;33.594;-117.718;2023-01-30T02:51:38;100045.78;;;10.15;100.00
16525;BME280;8375;33.594;-117.718;2023-01-30T02:54:08;100041.69;;;10.01;99.32
16525;BME280;8375;33.594;-117.718;2023-01-30T02:56:45;100044.16;;;10.02;100.00
16525;BME280;8375;33.594;-117.718;2023-01-30T02:59:17;100033.31;;;9.86;100.00
16525;BME280;8375;33.594;-117.718;2023-01-30T03:04:57;100029.44;;;9.80;100.00
16525;BME280;8375;33.594;-117.718;2023-01-30T03:07:41;100028.25;;;9.73;100.00
16525;BME280;8375;33.594;-117.718;2023-01-30T03:10:20;100033.91;;;9.66;100.00
16525;BME280;8375;33.594;-117.718;2023-01-30T03:12:55;100036.00;;;9.61;100.00
16525;BME280;8375;33.594;-117.718;2023-01-30T03:15:28;100032.69;;;9.48;100.00
16525;BME280;8375;33.594;-117.718;2023-01-30T03:18:00;100034.91;;;9.41;100.00
16525;BME280;8375;33.594;-117.718;2023-01-30T03:20:30;100033.41;;;9.50;100.00
16525;BME280;8375;33.594;-117.718;2023-01-30T03:23:03;100028.00;;;9.53;100.00
16525;BME280;8375;33.594;-117.718;2023-01-30T03:25:33;100028.09;;;9.51;100.00
16525;BME280;8375;33.594;-117.718;2023-01-30T03:28:04;100029.94;;;9.38;100.00
16525;BME280;8375;33.594;-117.718;2023-01-30T03:33:10;100030.88;;;9.37;100.00
16525;BME280;8375;33.594;-117.718;2023-01-30T03:35:39;100036.22;;;9.47;100.00
16525;BME280;8375;33.594;-117.718;2023-01-30T03:38:10;100042.69;;;9.52;100.00
16525;BME280;8375;33.594;-117.718;2023-01-30T03:40:40;100042.47;;;9.56;100.00
16525;BME280;8375;33.594;-117.718;2023-01-30T03:43:08;100038.22;;;9.54;100.00
16525;BME280;8375;33.594;-117.718;2023-01-30T03:45:37;100042.81;;;9.51;100.00
16525;BME280;8375;33.594;-117.718;2023-01-30T03:48:06;100052.13;;;9.53;100.00
16525;BME280;8375;33.594;-117.718;2023-01-30T03:50:37;100041.66;;;9.55;100.00
16525;BME280;8375;33.594;-117.718;2023-01-30T03:53:05;100037.88;;;9.48;100.00
16525;BME280;8375;33.594;-117.718;2023-01-30T03:55:34;100039.41;;;9.50;100.00
16525;BME280;8375;33.594;-117.718;2023-01-30T03:58:03;100038.19;;;9.43;100.00
16525;BME280;8375;33.594;-117.718;2023-01-30T04:00:32;100044.94;;;9.46;100.00
16525;BME280;8375;33.594;-117.718;2023-01-30T04:03:00;100034.66;;;9.44;100.00
16525;BME280;8375;33.594;-117.718;2023-01-30T04:05:29;100024.78;;;9.49;100.00
16525;BME280;8375;33.594;-117.718;2023-01-30T04:07:59;100028.44;;;9.47;100.00
16525;BME280;8375;33.594;-117.718;2023-01-30T04:10:28;100022.88;;;9.40;100.00
16525;BME280;8375;33.594;-117.718;2023-01-30T04:12:57;100033.59;;;9.35;100.00
16525;BME280;8375;33.594;-117.718;2023-01-30T04:15:26;100028.91;;;9.41;100.00
16525;BME280;8375;33.594;-117.718;2023-01-30T04:17:54;100036.78;;;9.39;100.00
16525;BME280;8375;33.594;-117.718;2023-01-30T04:20:23;100037.25;;;9.33;100.00
16525;BME280;8375;33.594;-117.718;2023-01-30T04:22:53;100035.59;;;9.32;100.00
16525;BME280;8375;33.594;-117.718;2023-01-30T04:25:24;100030.06;;;9.36;100.00
16525;BME280;8375;33.594;-117.718;2023-01-30T04:27:53;100034.66;;;9.33;100.00
16525;BME280;8375;33.594;-117.718;2023-01-30T04:30:22;100032.06;;;9.33;100.00
16525;BME280;8375;33.594;-117.718;2023-01-30T04:32:51;100033.00;;;9.32;100.00
16525;BME280;8375;33.594;-117.718;2023-01-30T04:35:21;100023.47;;;9.32;100.00
16525;BME280;8375;33.594;-117.718;2023-01-30T04:37:50;100043.00;;;9.25;100.00
16525;BME280;8375;33.594;-117.718;2023-01-30T04:40:19;100041.81;;;9.18;100.00
16525;BME280;8375;33.594;-117.718;2023-01-30T04:42:50;100042.75;;;9.17;100.00
16525;BME280;8375;33.594;-117.718;2023-01-30T04:45:19;100042.25;;;9.12;100.00
16525;BME280;8375;33.594;-117.718;2023-01-30T04:47:48;100040.59;;;9.10;100.00
16525;BME280;8375;33.594;-117.718;2023-01-30T04:50:18;100041.16;;;9.03;100.00
16525;BME280;8375;33.594;-117.718;2023-01-30T04:52:48;100035.16;;;9.02;100.00
16525;BME280;8375;33.594;-117.718;2023-01-30T04:55:17;100047.38;;;9.00;100.00
16525;BME280;8375;33.594;-117.718;2023-01-30T04:57:47;100035.25;;;9.01;100.00
16525;BME280;8375;33.594;-117.718;2023-01-30T05:00:18;100048.41;;;8.98;100.00
16525;BME280;8375;33.594;-117.718;2023-01-30T05:02:48;100046.91;;;8.95;100.00
16525;BME280;8375;33.594;-117.718;2023-01-30T05:05:17;100049.72;;;8.92;100.00
16525;BME280;8375;33.594;-117.718;2023-01-30T05:07:47;100042.88;;;8.91;100.00
16525;BME280;8375;33.594;-117.718;2023-01-30T05:10:17;100045.56;;;8.89;100.00
16525;BME280;8375;33.594;-117.718;2023-01-30T05:12:46;100039.44;;;8.90;100.00
16525;BME280;8375;33.594;-117.718;2023-01-30T05:15:14;100037.94;;;8.88;100.00
16525;BME280;8375;33.594;-117.718;2023-01-30T05:17:45;100047.94;;;8.92;100.00
16525;BME280;8375;33.594;-117.718;2023-01-30T05:20:14;100039.22;;;8.93;100.00
16525;BME280;8375;33.594;-117.718;2023-01-30T05:22:44;100050.28;;;8.95;100.00
16525;BME280;8375;33.594;-117.718;2023-01-30T05:25:13;100053.59;;;8.98;100.00
16525;BME280;8375;33.594;-117.718;2023-01-30T05:27:42;100045.13;;;8.95;100.00
16525;BME280;8375;33.594;-117.718;2023-01-30T05:30:11;100043.25;;;8.98;100.00
16525;BME280;8375;33.594;-117.718;2023-01-30T05:32:41;100049.97;;;9.00;100.00
16525;BME280;8375;33.594;-117.718;2023-01-30T05:35:12;100048.94;;;9.14;100.00
16525;BME280;8375;33.594;-117.718;2023-01-30T05:37:41;100057.44;;;9.16;100.00
16525;BME280;8375;33.594;-117.718;2023-01-30T05:40:11;100055.78;;;9.15;100.00
16525;BME280;8375;33.594;-117.718;2023-01-30T05:42:40;100059.53;;;9.11;100.00
16525;BME280;8375;33.594;-117.718;2023-01-30T05:45:10;100070.84;;;9.10;100.00
16525;BME280;8375;33.594;-117.718;2023-01-30T05:47:39;100060.69;;;9.07;100.00
16525;BME280;8375;33.594;-117.718;2023-01-30T05:50:09;100060.69;;;9.07;100.00
16525;BME280;8375;33.594;-117.718;2023-01-30T05:52:40;100053.56;;;9.10;100.00
16525;BME280;8375;33.594;-117.718;2023-01-30T05:55:09;100060.22;;;9.02;100.00
16525;BME280;8375;33.594;-117.718;2023-01-30T05:57:38;100067.75;;;9.05;100.00
16525;BME280;8375;33.594;-117.718;2023-01-30T06:00:08;100060.59;;;9.08;100.00
16525;BME280;8375;33.594;-117.718;2023-01-30T06:02:38;100064.22;;;9.06;100.00
16525;BME280;8375;33.594;-117.718;2023-01-30T06:05:07;100066.59;;;9.09;100.00
16525;BME280;8375;33.594;-117.718;2023-01-30T06:07:36;100063.63;;;9.02;100.00
16525;BME280;8375;33.594;-117.718;2023-01-30T06:10:08;100065.16;;;9.05;100.00
16525;BME280;8375;33.594;-117.718;2023-01-30T06:12:37;100070.47;;;9.03;100.00
16525;BME280;8375;33.594;-117.718;2023-01-30T06:15:06;100069.97;;;8.98;100.00
16525;BME280;8375;33.594;-117.718;2023-01-30T06:17:36;100076.91;;;8.98;100.00
16525;BME280;8375;33.594;-117.718;2023-01-30T06:20:05;100073.38;;;8.99;100.00
16525;BME280;8375;33.594;-117.718;2023-01-30T06:22:34;100075.38;;;8.95;100.00
16525;BME280;8375;33.594;-117.718;2023-01-30T06:25:04;100078.06;;;8.93;100.00
16525;BME280;8375;33.594;-117.718;2023-01-30T06:27:34;100076.31;;;8.94;100.00
16525;BME280;8375;33.594;-117.718;2023-01-30T06:30:04;100078.78;;;8.95;100.00
16525;BME280;8375;33.594;-117.718;2023-01-30T06:32:33;100076.09;;;8.97;100.00
16525;BME280;8375;33.594;-117.718;2023-01-30T06:35:02;100083.25;;;8.93;100.00
16525;BME280;8375;33.594;-117.718;2023-01-30T06:37:31;100084.09;;;8.94;100.00
16525;BME280;8375;33.594;-117.718;2023-01-30T06:40:00;100078.09;;;9.05;100.00
16525;BME280;8375;33.594;-117.718;2023-01-30T06:42:29;100080.78;;;8.92;100.00
16525;BME280;8375;33.594;-117.718;2023-01-30T06:44:59;100073.59;;;8.95;100.00
16525;BME280;8375;33.594;-117.718;2023-01-30T06:47:28;100074.22;;;8.99;100.00
16525;BME280;8375;33.594;-117.718;2023-01-30T06:49:56;100074.81;;;9.03;100.00
16525;BME280;8375;33.594;-117.718;2023-01-30T06:52:25;100077.41;;;9.03;100.00
16525;BME280;8375;33.594;-117.718;2023-01-30T06:54:54;100075.75;;;9.02;100.00
16525;BME280;8375;33.594;-117.718;2023-01-30T06:57:22;100073.06;;;9.03;100.00
16525;BME280;8375;33.594;-117.718;2023-01-30T06:59:51;100074.22;;;8.99;100.00
16525;BME280;8375;33.594;-117.718;2023-01-30T07:02:21;100074.97;;;8.88;100.00
16525;BME280;8375;33.594;-117.718;2023-01-30T07:04:50;100068.72;;;8.79;100.00
16525;BME280;8375;33.594;-117.718;2023-01-30T07:07:18;100075.84;;;8.76;100.00
16525;BME280;8375;33.594;-117.718;2023-01-30T07:09:47;100082.59;;;8.78;100.00
16525;BME280;8375;33.594;-117.718;2023-01-30T07:12:15;100086.22;;;8.76;100.00
16525;BME280;8375;33.594;-117.718;2023-01-30T07:14:44;100087.84;;;8.77;100.00
16525;BME280;8375;33.594;-117.718;2023-01-30T07:17:13;100089.72;;;8.75;100.00
16525;BME280;8375;33.594;-117.718;2023-01-30T07:19:43;100086.44;;;8.73;100.00
16525;BME280;8375;33.594;-117.718;2023-01-30T07:22:12;100092.31;;;8.75;100.00
16525;BME280;8375;33.594;-117.718;2023-01-30T07:24:41;100086.53;;;8.71;100.00
16525;BME280;8375;33.594;-117.718;2023-01-30T07:27:10;100081.69;;;8.66;100.00
16525;BME280;8375;33.594;-117.718;2023-01-30T07:29:40;100082.63;;;8.65;100.00
16525;BME280;8375;33.594;-117.718;2023-01-30T07:32:13;100086.25;;;8.63;100.00
16525;BME280;8375;33.594;-117.718;2023-01-30T07:34:44;100075.78;;;8.64;100.00
16525;BME280;8375;33.594;-117.718;2023-01-30T07:37:12;100073.09;;;8.66;100.00
16525;BME280;8375;33.594;-117.718;2023-01-30T07:39:41;100075.91;;;8.63;100.00
16525;BME280;8375;33.594;-117.718;2023-01-30T07:42:09;100080.88;;;8.66;100.00
16525;BME280;8375;33.594;-117.718;2023-01-30T07:44:38;100075.34;;;8.71;100.00
16525;BME280;8375;33.594;-117.718;2023-01-30T07:47:07;100076.06;;;8.73;100.00
16525;BME280;8375;33.594;-117.718;2023-01-30T07:49:35;100076.56;;;8.78;100.00
16525;BME280;8375;33.594;-117.718;2023-01-30T07:52:06;100078.22;;;8.79;100.00
16525;BME280;8375;33.594;-117.718;2023-01-30T07:54:35;100083.47;;;8.90;100.00
16525;BME280;8375;33.594;-117.718;2023-01-30T07:57:04;100079.72;;;8.94;100.00
16525;BME280;8375;33.594;-117.718;2023-01-30T07:59:32;100084.53;;;8.88;100.00
16525;BME280;8375;33.594;-117.718;2023-01-30T08:02:01;100082.88;;;8.87;100.00
16525;BME280;8375;33.594;-117.718;2023-01-30T08:04:29;100076.03;;;8.86;100.00
16525;BME280;8375;33.594;-117.718;2023-01-30T08:06:58;100072.13;;;8.80;100.00
16525;BME280;8375;33.594;-117.718;2023-01-30T08:09:28;100079.66;;;8.83;100.00
16525;BME280;8375;33.594;-117.718;2023-01-30T08:11:57;100080.50;;;8.84;100.00
16525;BME280;8375;33.594;-117.718;2023-01-30T08:14:26;100078.84;;;8.83;100.00
16525;BME280;8375;33.594;-117.718;2023-01-30T08:16:56;100087.41;;;8.83;100.00
16525;BME280;8375;33.594;-117.718;2023-01-30T08:19:24;100082.47;;;8.80;100.00
16525;BME280;8375;33.594;-117.718;2023-01-30T08:21:53;100080.72;;;8.80;100.00
16525;BME280;8375;33.594;-117.718;2023-01-30T08:24:22;100086.25;;;8.87;100.00
16525;BME280;8375;33.594;-117.718;2023-01-30T08:26:52;100082.03;;;8.86;100.00
16525;BME280;8375;33.594;-117.718;2023-01-30T08:29:21;100085.47;;;8.87;100.00
16525;BME280;8375;33.594;-117.718;2023-01-30T08:31:49;100082.88;;;8.87;100.00
16525;BME280;8375;33.594;-117.718;2023-01-30T08:34:18;100087.41;;;8.83;100.00
16525;BME280;8375;33.594;-117.718;2023-01-30T08:36:48;100087.03;;;8.76;100.00
16525;BME280;8375;33.594;-117.718;2023-01-30T08:39:16;100075.47;;;8.69;100.00
16525;BME280;8375;33.594;-117.718;2023-01-30T08:41:45;100080.88;;;8.66;100.00
16525;BME280;8375;33.594;-117.718;2023-01-30T08:44:15;100081.91;;;8.63;100.00
16525;BME280;8375;33.594;-117.718;2023-01-30T08:46:44;100084.69;;;8.60;100.00
16525;BME280;8375;33.594;-117.718;2023-01-30T08:49:13;100078.72;;;8.60;100.00
16525;BME280;8375;33.594;-117.718;2023-01-30T08:51:41;100078.09;;;8.56;100.00
16525;BME280;8375;33.594;-117.718;2023-01-30T08:54:10;100080.81;;;8.55;100.00
16525;BME280;8375;33.594;-117.718;2023-01-30T08:56:39;100076.56;;;8.54;100.00
16525;BME280;8375;33.594;-117.718;2023-01-30T08:59:08;100071.59;;;8.50;100.00
16525;BME280;8375;33.594;-117.718;2023-01-30T09:01:38;100058.53;;;8.52;100.00
16525;BME280;8375;33.594;-117.718;2023-01-30T09:04:07;100067.75;;;8.56;100.00
16525;BME280;8375;33.594;-117.718;2023-01-30T09:06:36;100062.13;;;8.62;100.00
16525;BME280;8375;33.594;-117.718;2023-01-30T09:09:04;100058.59;;;8.63;100.00
16525;BME280;8375;33.594;-117.718;2023-01-30T09:11:33;100060.81;;;8.57;100.00
16525;BME280;8375;33.594;-117.718;2023-01-30T09:14:01;100062.78;;;8.53;100.00
16525;BME280;8375;33.594;-117.718;2023-01-30T09:16:30;100064.78;;;8.49;100.00
16525;BME280;8375;33.594;-117.718;2023-01-30T09:19:00;100068.34;;;8.47;100.00
16525;BME280;8375;33.594;-117.718;2023-01-30T09:21:29;100068.34;;;8.47;100.00
16525;BME280;8375;33.594;-117.718;2023-01-30T09:23:57;100062.38;;;8.46;100.00
16525;BME280;8375;33.594;-117.718;2023-01-30T09:26:26;100062.78;;;8.53;100.00
16525;BME280;8375;33.594;-117.718;2023-01-30T09:28:55;100064.34;;;8.56;100.00
16525;BME280;8375;33.594;-117.718;2023-01-30T09:31:23;100074.47;;;8.59;100.00
16525;BME280;8375;33.594;-117.718;2023-01-30T09:33:52;100069.53;;;8.56;100.00
16525;BME280;8375;33.594;-117.718;2023-01-30T09:36:22;100079.66;;;8.59;100.00
16525;BME280;8375;33.594;-117.718;2023-01-30T09:38:51;100073.63;;;8.58;100.00
16525;BME280;8375;33.594;-117.718;2023-01-30T09:41:43;100074.13;;;8.63;100.00
16525;BME280;8375;33.594;-117.718;2023-01-30T09:44:42;100071.16;;;8.57;100.00
16525;BME280;8375;33.594;-117.718;2023-01-30T09:47:23;100067.97;;;8.53;100.00
16525;BME280;8375;33.594;-117.718;2023-01-30T09:50:03;100066.31;;;8.52;100.00
16525;BME280;8375;33.594;-117.718;2023-01-30T09:52:50;100064.97;;;8.46;100.00
16525;BME280;8375;33.594;-117.718;2023-01-30T09:55:22;100062.09;;;8.38;100.00
16525;BME280;8375;33.594;-117.718;2023-01-30T09:57:52;100059.94;;;8.32;100.00
16525;BME280;8375;33.594;-117.718;2023-01-30T10:00:25;100056.00;;;8.26;100.00
16525;BME280;8375;33.594;-117.718;2023-01-30T10:03:02;100058.16;;;8.32;100.00
16525;BME280;8375;33.594;-117.718;2023-01-30T10:05:38;100063.81;;;8.37;100.00
16525;BME280;8375;33.594;-117.718;2023-01-30T10:08:23;100061.03;;;8.41;100.00
16525;BME280;8375;33.594;-117.718;2023-01-30T10:11:00;100063.31;;;8.45;100.00
16525;BME280;8375;33.594;-117.718;2023-01-30T10:13:44;100056.56;;;8.43;100.00
16525;BME280;8375;33.594;-117.718;2023-01-30T10:16:17;100055.03;;;8.40;100.00
16525;BME280;8375;33.594;-117.718;2023-01-30T10:21:58;100063.31;;;8.45;100.00
16525;BME280;8375;33.594;-117.718;2023-01-30T10:24:41;100057.00;;;8.49;100.00
16525;BME280;8375;33.594;-117.718;2023-01-30T10:27:15;100067.16;;;8.53;100.00
16525;BME280;8375;33.594;-117.718;2023-01-30T10:29:47;100064.78;;;8.49;100.00
16525;BME280;8375;33.594;-117.718;2023-01-30T10:32:23;100067.41;;;8.48;100.00
16525;BME280;8375;33.594;-117.718;2023-01-30T10:34:57;100060.09;;;8.42;100.00
16525;BME280;8375;33.594;-117.718;2023-01-30T10:37:31;100066.91;;;8.43;100.00
16525;BME280;8375;33.594;-117.718;2023-01-30T10:40:06;100061.16;;;8.39;100.00
16525;BME280;8375;33.594;-117.718;2023-01-30T10:42:46;100054.75;;;8.32;100.00
16525;BME280;8375;33.594;-117.718;2023-01-30T10:45:19;100052.38;;;8.29;100.00
16525;BME280;8375;33.594;-117.718;2023-01-30T10:48:00;100060.31;;;8.39;100.00
16525;BME280;8375;33.594;-117.718;2023-01-30T10:50:47;100061.03;;;8.41;100.00
16525;BME280;8375;33.594;-117.718;2023-01-30T10:53:23;100067.53;;;8.46;100.00
16525;BME280;8375;33.594;-117.718;2023-01-30T10:56:01;100077.72;;;8.49;100.00
16525;BME280;8375;33.594;-117.718;2023-01-30T10:58:38;100082.94;;;8.48;100.00
16525;BME280;8375;33.594;-117.718;2023-01-30T11:01:16;100078.09;;;8.43;100.00
16525;BME280;8375;33.594;-117.718;2023-01-30T11:03:52;100085.03;;;8.43;100.00
16525;BME280;8375;33.594;-117.718;2023-01-30T11:06:23;100084.81;;;8.46;100.00
16525;BME280;8375;33.594;-117.718;2023-01-30T11:08:53;100089.47;;;8.41;100.00
16525;BME280;8375;33.594;-117.718;2023-01-30T11:11:26;100079.97;;;8.41;100.00
16525;BME280;8375;33.594;-117.718;2023-01-30T11:14:06;100080.56;;;8.45;100.00
16525;BME280;8375;33.594;-117.718;2023-01-30T11:16:42;100082.13;;;8.47;100.00
16525;BME280;8375;33.594;-117.718;2023-01-30T11:19:11;100084.22;;;8.42;100.00
16525;BME280;8375;33.594;-117.718;2023-01-30T11:21:40;100079.13;;;8.41;100.00
16525;BME280;8375;33.594;-117.718;2023-01-30T11:24:15;100083.59;;;8.39;100.00
16525;BME280;8375;33.594;-117.718;2023-01-30T11:26:47;100087.94;;;8.38;100.00
16525;BME280;8375;33.594;-117.718;2023-01-30T11:29:27;100090.75;;;8.35;100.00
16525;BME280;8375;33.594;-117.718;2023-01-30T11:31:57;100082.47;;;8.30;100.00
16525;BME280;8375;33.594;-117.718;2023-01-30T11:34:28;100088.78;;;8.26;100.00
16525;BME280;8375;33.594;-117.718;2023-01-30T11:37:12;100089.44;;;8.16;100.00
16525;BME280;8375;33.594;-117.718;2023-01-30T11:39:50;100078.66;;;8.22;100.00
16525;BME280;8375;33.594;-117.718;2023-01-30T11:42:25;100082.34;;;8.31;100.00
16525;BME280;8375;33.594;-117.718;2023-01-30T11:44:58;100083.19;;;8.32;100.00
16525;BME280;8375;33.594;-117.718;2023-01-30T11:47:28;100076.47;;;8.29;100.00
16525;BME280;8375;33.594;-117.718;2023-01-30T11:49:58;100076.06;;;8.22;100.00
16525;BME280;8375;33.594;-117.718;2023-01-30T11:52:29;100070.41;;;8.04;100.00
16525;BME280;8375;33.594;-117.718;2023-01-30T11:55:00;100071.25;;;8.05;100.00
16525;BME280;8375;33.594;-117.718;2023-01-30T11:57:39;100073.91;;;7.90;100.00
16525;BME280;8375;33.594;-117.718;2023-01-30T12:00:14;100067.09;;;8.02;100.00
16525;BME280;8375;33.594;-117.718;2023-01-30T12:02:45;100076.81;;;7.86;100.00
16525;BME280;8375;33.594;-117.718;2023-01-30T12:05:23;100069.28;;;7.83;100.00
16525;BME280;8375;33.594;-117.718;2023-01-30T12:07:53;100073.91;;;7.77;100.00
16525;BME280;8375;33.594;-117.718;2023-01-30T12:10:41;100062.44;;;7.82;100.00
16525;BME280;8375;33.594;-117.718;2023-01-30T12:13:16;100059.66;;;7.85;100.00
16525;BME280;8375;33.594;-117.718;2023-01-30T12:15:50;100067.69;;;7.80;100.00
16525;BME280;8375;33.594;-117.718;2023-01-30T12:18:24;100066.38;;;7.74;100.00
16525;BME280;8375;33.594;-117.718;2023-01-30T12:20:58;100063.78;;;7.74;100.00
16525;BME280;8375;33.594;-117.718;2023-01-30T12:23:36;100059.34;;;7.76;100.00
16525;BME280;8375;33.594;-117.718;2023-01-30T12:26:12;100059.63;;;7.72;100.00
16525;BME280;8375;33.594;-117.718;2023-01-30T12:28:49;100066.66;;;7.70;100.00
16525;BME280;8375;33.594;-117.718;2023-01-30T12:31:24;100058.41;;;7.64;100.00
16525;BME280;8375;33.594;-117.718;2023-01-30T12:33:54;100059.13;;;7.67;100.00
16525;BME280;8375;33.594;-117.718;2023-01-30T12:36:33;100064.28;;;7.67;100.00
16525;BME280;8375;33.594;-117.718;2023-01-30T12:39:15;100059.75;;;7.70;100.00
16525;BME280;8375;33.594;-117.718;2023-01-30T12:42:04;100067.50;;;7.70;100.00
16525;BME280;8375;33.594;-117.718;2023-01-30T12:44:54;100066.25;;;7.76;100.00
16525;BME280;8375;33.594;-117.718;2023-01-30T12:47:40;100062.84;;;7.75;100.00
16525;BME280;8375;33.594;-117.718;2023-01-30T12:50:27;100059.22;;;7.78;100.00
16525;BME280;8375;33.594;-117.718;2023-01-30T12:55:56;100052.00;;;7.83;100.00
16525;BME280;8375;33.594;-117.718;2023-01-30T12:58:33;100059.03;;;7.81;100.00
16525;BME280;8375;33.594;-117.718;2023-01-30T13:01:17;100055.28;;;7.85;100.00
16525;BME280;8375;33.594;-117.718;2023-01-30T13:03:54;100051.91;;;7.85;100.00
16525;BME280;8375;33.594;-117.718;2023-01-30T13:06:53;100052.84;;;7.84;100.00
16525;BME280;8375;33.594;-117.718;2023-01-30T13:09:44;100058.72;;;7.86;100.00
16525;BME280;8375;33.594;-117.718;2023-01-30T13:12:22;100053.56;;;7.86;100.00